createdAt,value
2022-08-03T00:00:31.791Z,48.98
2022-08-03T00:02:59.560Z,49.40
2022-08-03T00:05:27.296Z,48.89
2022-08-03T00:07:55.127Z,49.03
2022-08-03T00:10:23.619Z,49.54
2022-08-03T00:12:52.634Z,49.46
2022-08-03T00:15:20.500Z,49.69
2022-08-03T00:17:52.977Z,49.99
2022-08-03T00:20:21.891Z,49.95
2022-08-03T00:22:50.052Z,50.33
2022-08-03T00:25:17.802Z,50.75
2022-08-03T00:27:45.528Z,50.58
2022-08-03T00:30:17.689Z,51.10
2022-08-03T00:32:45.654Z,51.11
2022-08-03T00:35:36.481Z,50.85
2022-08-03T00:38:01.257Z,51.20
2022-08-03T00:40:29.329Z,51.64
2022-08-03T00:42:58.884Z,51.23
2022-08-03T00:45:30.517Z,51.26
2022-08-03T00:47:59.197Z,51.31
2022-08-03T00:50:28.949Z,51.41
2022-08-03T00:52:58.256Z,51.53
2022-08-03T00:55:26.557Z,51.47
2022-08-03T00:57:54.707Z,51.61
2022-08-03T01:00:23.782Z,51.68
2022-08-03T01:02:53.869Z,51.40
2022-08-03T01:05:22.667Z,51.70
2022-08-03T01:08:06.735Z,51.68
2022-08-03T01:10:41.776Z,51.88
2022-08-03T01:14:01.462Z,52.33
2022-08-03T01:16:16.448Z,51.74
2022-08-03T01:18:52.985Z,51.75
2022-08-03T01:21:27.614Z,51.83
2022-08-03T01:24:07.198Z,52.12
2022-08-03T01:26:55.192Z,51.86
2022-08-03T01:29:47.231Z,52.21
2022-08-03T01:32:59.365Z,51.75
2022-08-03T01:35:10.398Z,51.67
2022-08-03T01:37:43.511Z,51.85
2022-08-03T01:40:14.403Z,51.51
2022-08-03T01:42:43.781Z,51.51
2022-08-03T01:45:17.860Z,51.75
2022-08-03T01:47:46.845Z,51.91
2022-08-03T01:50:16.193Z,52.27
2022-08-03T01:52:47.301Z,52.16
2022-08-03T01:55:18.281Z,52.33
2022-08-03T01:58:06.063Z,52.01
2022-08-03T02:00:38.323Z,52.38
2022-08-03T02:03:08.166Z,52.22
2022-08-03T02:05:37.502Z,52.17
2022-08-03T02:08:07.754Z,51.88
2022-08-03T02:10:37.162Z,52.40
2022-08-03T02:13:08.206Z,52.37
2022-08-03T02:15:38.872Z,52.36
2022-08-03T02:18:09.926Z,52.31
2022-08-03T02:20:39.327Z,52.41
2022-08-03T02:23:07.872Z,51.91
2022-08-03T02:25:39.758Z,52.36
2022-08-03T02:28:09.834Z,52.09
2022-08-03T02:30:41.928Z,52.29
2022-08-03T02:33:15.178Z,52.31
2022-08-03T02:35:44.969Z,52.23
2022-08-03T02:38:15.120Z,51.74
2022-08-03T02:40:45.922Z,51.87
2022-08-03T02:43:18.995Z,52.37
2022-08-03T02:45:50.703Z,52.47
2022-08-03T02:48:22.676Z,52.81
2022-08-03T02:50:54.088Z,52.54
2022-08-03T02:53:25.565Z,52.64
2022-08-03T02:55:54.928Z,52.49
2022-08-03T02:58:25.685Z,52.50
2022-08-03T03:00:55.869Z,52.97
2022-08-03T03:03:25.614Z,52.84
2022-08-03T03:05:57.627Z,53.05
2022-08-03T03:08:28.830Z,52.13
2022-08-03T03:10:59.250Z,52.78
2022-08-03T03:13:29.243Z,52.77
2022-08-03T03:16:02.338Z,53.17
2022-08-03T03:18:32.004Z,53.00
2022-08-03T03:21:01.731Z,52.57
2022-08-03T03:23:30.071Z,52.59
2022-08-03T03:25:58.952Z,52.76
2022-08-03T03:28:26.931Z,52.57
2022-08-03T03:30:54.847Z,52.91
2022-08-03T03:33:24.791Z,52.75
2022-08-03T03:35:52.829Z,52.91
2022-08-03T03:38:21.002Z,52.96
2022-08-03T03:40:50.246Z,53.04
2022-08-03T03:43:18.813Z,52.98
2022-08-03T03:45:46.994Z,52.67
2022-08-03T03:48:15.326Z,53.05
2022-08-03T03:50:45.061Z,52.75
2022-08-03T03:53:14.621Z,53.14
2022-08-03T03:55:59.348Z,53.31
2022-08-03T03:58:31.962Z,53.71
2022-08-03T04:00:59.923Z,53.55
2022-08-03T04:03:27.768Z,53.62
2022-08-03T04:06:14.800Z,53.67
2022-08-03T04:09:00.171Z,53.38
2022-08-03T04:11:32.011Z,53.95
2022-08-03T04:14:06.584Z,53.23
2022-08-03T04:16:43.114Z,52.45
2022-08-03T04:19:19.798Z,52.96
2022-08-03T04:21:57.058Z,53.96
2022-08-03T04:24:28.128Z,54.07
2022-08-03T04:26:58.351Z,54.86
2022-08-03T04:29:27.798Z,53.88
2022-08-03T04:31:58.523Z,53.55
2022-08-03T04:34:26.364Z,53.30
2022-08-03T04:37:00.167Z,52.95
2022-08-03T04:39:30.908Z,52.76
2022-08-03T04:42:09.058Z,52.88
2022-08-03T04:44:40.650Z,52.44
2022-08-03T04:47:08.786Z,52.38
2022-08-03T04:49:38.224Z,52.48
2022-08-03T04:52:09.941Z,52.78
2022-08-03T04:54:41.498Z,52.84
2022-08-03T04:57:09.181Z,52.96
2022-08-03T04:59:40.962Z,52.96
2022-08-03T05:02:08.690Z,52.61
2022-08-03T05:04:38.011Z,52.84
2022-08-03T05:07:12.255Z,52.57
2022-08-03T05:09:50.539Z,52.55
2022-08-03T05:12:20.645Z,52.32
2022-08-03T05:14:48.436Z,52.29
2022-08-03T05:17:16.111Z,52.36
2022-08-03T05:19:43.812Z,52.78
2022-08-03T05:22:12.876Z,52.67
2022-08-03T05:24:40.587Z,52.77
2022-08-03T05:27:08.361Z,52.53
2022-08-03T05:29:36.149Z,51.98
2022-08-03T05:32:08.173Z,52.29
2022-08-03T05:34:36.586Z,52.24
2022-08-03T05:37:04.387Z,52.09
2022-08-03T05:39:33.465Z,52.32
2022-08-03T05:42:01.935Z,52.84
2022-08-03T05:44:30.974Z,53.88
2022-08-03T05:46:59.488Z,54.08
2022-08-03T05:49:27.426Z,53.16
2022-08-03T05:51:59.980Z,53.35
2022-08-03T05:54:56.120Z,53.13
2022-08-03T05:57:25.416Z,53.14
2022-08-03T05:59:53.878Z,52.18
2022-08-03T06:02:26.653Z,52.29
2022-08-03T06:05:03.718Z,52.30
2022-08-03T06:07:31.869Z,53.03
2022-08-03T06:10:36.259Z,52.85
2022-08-03T06:12:51.086Z,52.70
2022-08-03T06:30:38.464Z,51.70
2022-08-03T06:33:08.214Z,51.84
2022-08-03T06:35:36.106Z,51.84
2022-08-03T06:38:04.895Z,52.22
2022-08-03T06:40:34.083Z,52.00
2022-08-03T06:43:03.971Z,52.24
2022-08-03T06:45:32.279Z,51.76
2022-08-03T06:48:06.419Z,51.75
2022-08-03T06:50:35.303Z,52.22
2022-08-03T06:53:03.536Z,52.20
2022-08-03T06:55:31.665Z,51.98
2022-08-03T06:58:03.589Z,52.01
2022-08-03T07:00:32.065Z,51.85
2022-08-03T07:02:59.871Z,51.29
2022-08-03T07:05:30.479Z,51.44
2022-08-03T07:07:59.197Z,51.57
2022-08-03T07:10:27.701Z,51.60
2022-08-03T07:12:56.759Z,51.02
2022-08-03T07:15:55.583Z,51.23
2022-08-03T07:18:13.115Z,51.33
2022-08-03T07:20:42.300Z,51.38
2022-08-03T07:23:17.553Z,51.23
2022-08-03T07:25:47.402Z,51.02
2022-08-03T07:28:15.375Z,51.46
2022-08-03T07:30:43.129Z,51.00
2022-08-03T07:33:11.554Z,51.14
2022-08-03T07:35:39.608Z,51.31
2022-08-03T07:38:08.641Z,50.77
2022-08-03T07:40:36.381Z,50.90
2022-08-03T07:43:04.969Z,50.73
2022-08-03T07:45:33.480Z,50.70
2022-08-03T07:48:01.542Z,50.31
2022-08-03T07:50:30.468Z,51.00
2022-08-03T07:53:09.156Z,50.53
2022-08-03T07:55:39.008Z,50.28
2022-08-03T07:58:10.226Z,49.99
2022-08-03T08:00:39.067Z,49.48
2022-08-03T08:03:07.472Z,49.75
2022-08-03T08:05:35.826Z,49.94
2022-08-03T08:08:04.257Z,50.08
2022-08-03T08:10:32.725Z,50.05
2022-08-03T08:13:02.260Z,49.02
2022-08-03T08:15:30.282Z,48.62
2022-08-03T08:17:59.751Z,48.79
2022-08-03T08:20:31.828Z,49.03
2022-08-03T08:23:03.420Z,49.02
2022-08-03T08:25:38.191Z,47.06
2022-08-03T08:28:32.412Z,46.38
2022-08-03T08:31:10.776Z,46.82
2022-08-03T08:36:26.101Z,48.35
2022-08-03T08:38:53.748Z,48.17
2022-08-03T08:41:21.430Z,48.81
2022-08-03T08:43:50.518Z,48.00
2022-08-03T08:46:23.886Z,48.06
2022-08-03T08:48:53.157Z,47.32
2022-08-03T08:51:22.294Z,47.43
2022-08-03T08:53:53.639Z,46.94
2022-08-03T08:56:25.462Z,47.13
2022-08-03T08:58:59.143Z,46.92
2022-08-03T09:01:27.571Z,47.11
2022-08-03T09:03:55.786Z,45.97
2022-08-03T09:06:24.010Z,45.42
2022-08-03T09:08:51.870Z,44.70
2022-08-03T09:11:51.763Z,42.15
2022-08-03T09:14:34.366Z,41.93
2022-08-03T09:17:02.117Z,41.33
2022-08-03T09:19:30.723Z,42.52
2022-08-03T09:22:16.882Z,43.40
2022-08-03T09:25:21.616Z,40.63
2022-08-03T09:27:45.801Z,40.80
2022-08-03T09:30:33.608Z,41.90
2022-08-03T09:33:03.352Z,42.46
2022-08-03T09:38:23.930Z,41.88
2022-08-03T09:40:55.936Z,39.07
2022-08-03T09:43:27.583Z,39.21
2022-08-03T09:46:07.449Z,40.09
2022-08-03T09:48:36.810Z,38.93
2022-08-03T09:51:13.253Z,39.47
2022-08-03T09:53:59.619Z,40.18
2022-08-03T09:56:40.052Z,39.15
2022-08-03T09:59:08.113Z,40.31
2022-08-03T10:01:41.615Z,39.63
2022-08-03T10:04:15.021Z,39.27
2022-08-03T10:06:42.757Z,38.97
2022-08-03T10:09:14.291Z,37.79
2022-08-03T10:11:43.401Z,38.32
2022-08-03T10:14:18.695Z,39.18
2022-08-03T10:16:48.905Z,38.66
2022-08-03T10:19:17.558Z,38.12
2022-08-03T10:21:51.189Z,37.56
2022-08-03T10:24:26.448Z,37.45
2022-08-03T10:26:58.787Z,38.02
2022-08-03T10:29:29.906Z,45.76
2022-08-03T10:32:00.508Z,42.36
2022-08-03T10:34:35.007Z,36.40
2022-08-03T10:37:09.026Z,32.35
2022-08-03T10:39:37.331Z,30.70
2022-08-03T10:42:13.520Z,29.51
2022-08-03T10:44:43.444Z,29.33
2022-08-03T10:47:12.923Z,28.66
2022-08-03T10:49:41.222Z,28.32
2022-08-03T10:52:30.371Z,27.71
2022-08-03T10:55:16.156Z,27.49
2022-08-03T10:57:48.884Z,30.24
2022-08-03T11:00:19.141Z,30.58
2022-08-03T11:03:11.433Z,31.74
2022-08-03T11:05:41.946Z,32.06
2022-08-03T11:08:27.851Z,31.94
2022-08-03T11:10:58.161Z,31.50
2022-08-03T11:13:30.851Z,30.29
2022-08-03T11:16:04.780Z,30.86
2022-08-03T11:18:36.341Z,30.74
2022-08-03T11:21:04.352Z,30.38
2022-08-03T11:24:02.717Z,30.50
2022-08-03T11:26:31.084Z,29.92
2022-08-03T11:29:28.661Z,30.11
2022-08-03T11:31:56.532Z,29.68
2022-08-03T11:34:25.904Z,29.71
2022-08-03T11:37:23.579Z,30.34
2022-08-03T11:39:54.899Z,29.88
2022-08-03T11:42:41.714Z,29.33
2022-08-03T11:45:10.899Z,29.57
2022-08-03T11:47:50.968Z,28.75
2022-08-03T11:50:21.405Z,29.01
2022-08-03T11:52:50.546Z,28.36
2022-08-03T11:55:20.520Z,28.48
2022-08-03T11:59:15.142Z,28.56
2022-08-03T12:00:36.779Z,28.40
2022-08-03T12:03:07.975Z,28.34
2022-08-03T12:05:39.117Z,29.10
2022-08-03T12:08:07.917Z,27.76
2022-08-03T12:10:35.938Z,27.89
2022-08-03T12:14:44.169Z,28.22
2022-08-03T12:15:59.130Z,28.78
2022-08-03T12:18:27.287Z,28.58
2022-08-03T12:21:06.220Z,24.23
2022-08-03T12:23:37.700Z,29.32
2022-08-03T12:26:07.563Z,27.98
2022-08-03T12:28:37.909Z,27.87
2022-08-03T12:31:09.107Z,27.99
2022-08-03T12:33:59.386Z,27.17
2022-08-03T12:36:29.201Z,27.47
2022-08-03T12:38:59.890Z,28.25
2022-08-03T12:41:34.226Z,27.32
2022-08-03T12:44:03.360Z,27.36
2022-08-03T12:46:33.186Z,26.91
2022-08-03T12:49:07.874Z,27.22
2022-08-03T12:51:40.047Z,26.00
2022-08-03T12:54:07.904Z,27.00
2022-08-03T12:56:36.366Z,27.52
2022-08-03T12:59:25.769Z,27.34
2022-08-03T13:02:04.374Z,27.35
2022-08-03T13:04:33.817Z,26.49
2022-08-03T13:07:05.563Z,26.50
2022-08-03T13:09:43.041Z,27.39
2022-08-03T13:12:12.778Z,27.69
2022-08-03T13:14:40.798Z,25.72
2022-08-03T13:17:09.276Z,27.87
2022-08-03T13:19:37.926Z,28.50
2022-08-03T13:22:13.977Z,29.10
2022-08-03T13:24:42.562Z,29.20
2022-08-03T13:28:01.378Z,26.43
2022-08-03T13:29:58.885Z,27.33
2022-08-03T13:32:26.977Z,28.41
2022-08-03T13:34:54.735Z,28.76
2022-08-03T13:37:23.948Z,28.53
2022-08-03T13:39:59.306Z,28.76
2022-08-03T13:42:29.594Z,29.01
2022-08-03T13:44:57.551Z,28.90
2022-08-03T13:47:25.323Z,28.92
2022-08-03T13:49:59.886Z,27.67
2022-08-03T13:52:31.683Z,28.35
2022-08-03T13:54:59.867Z,28.65
2022-08-03T13:58:03.905Z,28.05
2022-08-03T14:00:28.190Z,28.94
2022-08-03T14:03:03.819Z,29.60
2022-08-03T14:05:34.133Z,29.34
2022-08-03T14:08:05.643Z,28.89
2022-08-03T14:10:38.006Z,29.71
2022-08-03T14:13:06.038Z,29.37
2022-08-03T14:15:37.879Z,29.79
2022-08-03T14:18:06.504Z,29.61
2022-08-03T14:20:36.311Z,29.25
2022-08-03T14:23:07.002Z,29.78
2022-08-03T14:25:43.424Z,28.57
2022-08-03T14:28:18.542Z,28.44
2022-08-03T14:30:46.701Z,28.04
2022-08-03T14:33:14.363Z,28.56
2022-08-03T14:35:42.066Z,28.20
2022-08-03T14:38:11.164Z,28.07
2022-08-03T14:40:38.967Z,28.08
2022-08-03T14:43:06.741Z,27.45
2022-08-03T14:45:34.968Z,26.82
2022-08-03T14:50:29.165Z,26.75
2022-08-03T14:50:51.973Z,24.54
2022-08-03T14:53:21.134Z,25.09
2022-08-03T14:55:51.582Z,25.43
2022-08-03T14:58:21.367Z,24.89
2022-08-03T15:00:50.928Z,23.61
2022-08-03T15:03:20.483Z,24.33
2022-08-03T15:05:48.483Z,23.82
2022-08-03T15:08:16.229Z,24.71
2022-08-03T15:10:45.665Z,25.37
2022-08-03T15:13:13.620Z,25.08
2022-08-03T15:15:41.828Z,24.13
2022-08-03T15:18:10.144Z,24.64
2022-08-03T15:20:46.653Z,24.85
2022-08-03T15:23:15.730Z,24.87
2022-08-03T15:26:28.904Z,25.28
2022-08-03T15:28:33.557Z,25.58
2022-08-03T15:31:01.300Z,25.21
2022-08-03T15:33:29.173Z,25.30
2022-08-03T15:35:58.044Z,25.28
2022-08-03T15:38:26.482Z,25.93
2022-08-03T15:40:55.756Z,25.02
2022-08-03T15:43:23.571Z,25.12
2022-08-03T15:46:18.995Z,25.65
2022-08-03T15:48:39.392Z,25.17
2022-08-03T15:51:08.010Z,25.86
2022-08-03T15:53:36.018Z,25.75
2022-08-03T15:56:11.352Z,24.90
2022-08-03T15:59:09.809Z,25.41
2022-08-03T16:01:29.163Z,25.10
2022-08-03T16:03:57.231Z,25.12
2022-08-03T16:06:29.722Z,25.31
2022-08-03T16:09:03.408Z,25.99
2022-08-03T16:11:32.530Z,25.80
2022-08-03T16:14:12.810Z,25.07
2022-08-03T16:16:47.945Z,25.67
2022-08-03T16:19:15.810Z,26.34
2022-08-03T16:21:48.274Z,26.04
2022-08-03T16:24:17.525Z,26.00
2022-08-03T16:26:49.068Z,26.23
2022-08-03T16:29:23.653Z,24.43
2022-08-03T16:31:52.280Z,26.17
2022-08-03T16:34:20.249Z,26.36
2022-08-03T16:36:47.931Z,26.06
2022-08-03T16:39:15.963Z,26.40
2022-08-03T16:41:54.328Z,26.11
2022-08-03T16:44:30.969Z,26.78
2022-08-03T16:46:58.837Z,26.29
2022-08-03T16:49:54.188Z,27.10
2022-08-03T16:52:14.381Z,25.54
2022-08-03T16:54:50.658Z,25.90
2022-08-03T16:57:56.560Z,27.00
2022-08-03T17:00:12.109Z,27.57
2022-08-03T17:03:00.893Z,26.97
2022-08-03T17:05:46.878Z,27.22
2022-08-03T17:08:15.684Z,27.46
2022-08-03T17:10:44.502Z,27.18
2022-08-03T17:13:22.004Z,27.92
2022-08-03T17:16:01.351Z,28.36
2022-08-03T17:18:35.192Z,28.00
2022-08-03T17:21:05.782Z,27.56
2022-08-03T17:23:42.837Z,26.95
2022-08-03T17:26:21.109Z,28.18
2022-08-03T17:28:57.876Z,28.71
2022-08-03T17:31:32.262Z,28.27
2022-08-03T17:34:15.460Z,28.91
2022-08-03T17:37:03.751Z,29.38
2022-08-03T17:39:57.767Z,28.90
2022-08-03T17:42:31.163Z,29.97
2022-08-03T17:45:02.306Z,30.24
2022-08-03T17:47:41.424Z,29.92
2022-08-03T17:50:24.676Z,29.98
2022-08-03T17:53:07.682Z,30.11
2022-08-03T17:55:55.276Z,30.56
2022-08-03T17:58:41.258Z,31.41
2022-08-03T18:02:01.934Z,30.98
2022-08-03T18:04:29.725Z,31.24
2022-08-03T18:07:11.764Z,31.64
2022-08-03T18:10:03.451Z,31.47
2022-08-03T18:12:39.839Z,32.25
2022-08-03T18:15:22.192Z,32.38
2022-08-03T18:17:55.313Z,31.57
2022-08-03T18:20:45.764Z,32.24
2022-08-03T18:23:25.318Z,32.49
2022-08-03T18:26:07.735Z,32.45
2022-08-03T18:28:42.451Z,32.28
2022-08-03T18:31:11.907Z,32.44
2022-08-03T18:34:16.628Z,32.37
2022-08-03T18:36:31.931Z,31.60
2022-08-03T18:39:03.207Z,32.00
2022-08-03T18:41:34.699Z,32.72
2022-08-03T18:44:07.070Z,33.03
2022-08-03T18:46:48.983Z,33.04
2022-08-03T18:49:29.551Z,32.97
2022-08-03T18:52:05.279Z,33.13
2022-08-03T18:55:02.335Z,33.42
2022-08-03T18:57:40.289Z,32.72
2022-08-03T19:00:14.062Z,33.33
2022-08-03T19:02:48.597Z,33.00
2022-08-03T19:05:20.266Z,33.14
2022-08-03T19:07:59.808Z,33.24
2022-08-03T19:10:32.155Z,33.79
2022-08-03T19:13:05.316Z,33.15
2022-08-03T19:15:51.227Z,33.31
2022-08-03T19:18:22.510Z,33.66
2022-08-03T19:20:54.650Z,33.24
2022-08-03T19:23:26.299Z,34.08
2022-08-03T19:26:03.093Z,34.10
2022-08-03T19:28:31.217Z,33.73
2022-08-03T19:31:02.655Z,34.35
2022-08-03T19:33:56.145Z,33.94
2022-08-03T19:36:27.350Z,34.75
2022-08-03T19:38:58.561Z,34.69
2022-08-03T19:41:31.167Z,34.68
2022-08-03T19:44:11.524Z,34.19
2022-08-03T19:46:47.827Z,34.43
2022-08-03T19:49:17.275Z,34.83
2022-08-03T19:52:00.807Z,35.10
2022-08-03T19:54:45.700Z,34.95
2022-08-03T19:57:24.161Z,35.24
2022-08-03T19:59:53.620Z,35.37
2022-08-03T20:02:25.606Z,35.37
2022-08-03T20:04:56.002Z,35.68
2022-08-03T20:07:24.133Z,35.63
2022-08-03T20:09:54.569Z,35.75
2022-08-03T20:12:27.619Z,36.02
2022-08-03T20:14:57.360Z,35.83
2022-08-03T20:17:54.881Z,35.86
2022-08-03T20:20:13.678Z,36.57
2022-08-03T20:22:45.537Z,35.81
2022-08-03T20:25:21.030Z,35.72
2022-08-03T20:28:07.218Z,36.05
2022-08-03T20:30:42.612Z,35.42
2022-08-03T20:33:10.920Z,35.56
2022-08-03T20:35:41.807Z,36.32
2022-08-03T20:38:10.260Z,35.84
2022-08-03T20:40:39.855Z,35.97
2022-08-03T20:43:09.284Z,36.14
2022-08-03T20:45:59.762Z,36.27
2022-08-03T20:48:27.552Z,36.49
2022-08-03T20:50:56.842Z,36.65
2022-08-03T20:53:57.292Z,35.92
2022-08-03T20:56:15.075Z,36.43
2022-08-03T20:58:50.733Z,36.27
2022-08-03T21:01:27.691Z,36.41
2022-08-03T21:04:06.896Z,37.10
2022-08-03T21:06:38.127Z,37.22
2022-08-03T21:09:07.654Z,37.19
2022-08-03T21:11:41.937Z,37.57
2022-08-03T21:14:16.358Z,37.51
2022-08-03T21:16:46.162Z,37.61
2022-08-03T21:19:15.463Z,38.02
2022-08-03T21:21:47.719Z,38.05
2022-08-03T21:24:16.293Z,37.90
2022-08-03T21:26:48.355Z,37.94
2022-08-03T21:29:16.743Z,38.30
2022-08-03T21:31:44.944Z,38.46
2022-08-03T21:34:12.997Z,38.38
2022-08-03T21:36:40.805Z,38.69
2022-08-03T21:39:10.521Z,39.36
2022-08-03T21:41:40.109Z,38.80
2022-08-03T21:44:09.454Z,38.73
2022-08-03T21:46:39.174Z,37.79
2022-08-03T21:50:07.971Z,37.49
2022-08-03T21:52:00.421Z,37.68
2022-08-03T21:54:36.014Z,37.73
2022-08-03T21:57:06.892Z,38.07
2022-08-03T21:59:38.265Z,38.16
2022-08-03T22:02:20.020Z,37.89
2022-08-03T22:04:56.247Z,38.43
2022-08-03T22:07:26.358Z,38.52
2022-08-03T22:09:55.931Z,38.73
2022-08-03T22:12:26.067Z,38.90
2022-08-03T22:15:01.171Z,39.11
2022-08-03T22:17:54.046Z,39.18
2022-08-03T22:20:19.910Z,39.37
2022-08-03T22:22:54.969Z,39.32
2022-08-03T22:25:27.185Z,39.71
2022-08-03T22:27:55.722Z,39.75
2022-08-03T22:30:24.911Z,39.77
2022-08-03T22:32:56.038Z,39.96
2022-08-03T22:35:25.795Z,40.26
2022-08-03T22:37:55.446Z,40.27
2022-08-03T22:40:23.441Z,40.39
2022-08-03T22:42:53.969Z,40.43
2022-08-03T22:46:08.486Z,40.48
2022-08-03T22:48:11.943Z,40.84
2022-08-03T22:50:42.290Z,40.80
2022-08-03T22:53:10.650Z,40.74
2022-08-03T22:55:38.408Z,40.67
2022-08-03T22:58:06.206Z,41.04
2022-08-03T23:00:34.066Z,41.30
2022-08-03T23:03:07.334Z,41.36
2022-08-03T23:06:02.592Z,41.58
2022-08-03T23:08:26.779Z,41.27
2022-08-03T23:10:57.225Z,41.72
2022-08-03T23:13:26.467Z,41.53
2022-08-03T23:15:57.725Z,41.74
2022-08-03T23:18:30.435Z,41.69
2022-08-03T23:21:11.054Z,41.38
2022-08-03T23:23:44.172Z,41.62
2022-08-03T23:26:16.301Z,41.61
2022-08-03T23:28:47.743Z,41.82
2022-08-03T23:31:16.331Z,41.99
2022-08-03T23:33:46.026Z,41.77
2022-08-03T23:36:30.835Z,42.00
2022-08-03T23:39:03.423Z,42.23
2022-08-03T23:41:31.811Z,42.59
2022-08-03T23:44:01.866Z,42.25
2022-08-03T23:46:32.059Z,42.51
2022-08-03T23:49:00.787Z,42.56
2022-08-03T23:51:40.391Z,43.01
2022-08-03T23:54:20.449Z,42.91
2022-08-03T23:56:56.216Z,43.19
2022-08-03T23:59:31.628Z,43.32
